Time;durP1;ratioP1;P1;durP2;ratioP2;P2;SDS_P1;SDS_P2;PMS_P1;PMS_P2;Temp;Humidity;BMP_temperature;BMP_pressure;BME280_temperature;BME280_humidity;BME280_pressure;Samples;Min_cycle;Max_cycle;Signal;HPM_P1;HPM_P2
2022/10/16 00:02:26;;;;;;;4.93;2.90;;;16.60;99.90;;;;;;5070495;28;20514;-76
2022/10/16 00:05:12;;;;;;;7.33;3.03;;;16.50;99.90;;;;;;5061919;28;20797;-76
2022/10/16 00:07:59;;;;;;;7.53;2.53;;;16.50;99.90;;;;;;5071502;28;20455;-75
2022/10/16 00:10:45;;;;;;;4.10;2.60;;;16.50;99.90;;;;;;5068060;28;20474;-76
2022/10/16 00:13:31;;;;;;;3.40;2.47;;;16.50;99.90;;;;;;5070093;28;20449;-76
2022/10/16 00:16:17;;;;;;;5.37;2.20;;;16.60;99.90;;;;;;5066167;28;20518;-76
2022/10/16 00:19:03;;;;;;;3.33;2.17;;;16.50;99.90;;;;;;5067443;28;20450;-76
2022/10/16 00:21:49;;;;;;;3.20;2.30;;;16.50;99.90;;;;;;5068701;28;20409;-76
2022/10/16 00:24:37;;;;;;;4.23;2.43;;;16.60;99.90;;;;;;5068185;28;20832;-75
2022/10/16 00:27:22;;;;;;;2.50;2.10;;;16.60;99.90;;;;;;5068695;28;20419;-76
2022/10/16 00:30:09;;;;;;;4.73;2.67;;;16.70;99.90;;;;;;5072067;28;20824;-76
2022/10/16 00:32:55;;;;;;;5.27;2.60;;;16.70;99.90;;;;;;5070549;28;20515;-76
2022/10/16 00:35:41;;;;;;;3.57;2.83;;;16.70;99.90;;;;;;5067508;28;20439;-76
2022/10/16 00:38:26;;;;;;;2.60;2.40;;;16.70;99.90;;;;;;5061144;28;20466;-75
2022/10/16 00:41:16;;;;;;;4.57;2.60;;;16.70;99.90;;;;;;5069667;28;20417;-76
2022/10/16 00:44:03;;;;;;;5.00;3.07;;;16.80;99.90;;;;;;5060394;28;20943;-75
2022/10/16 00:46:49;;;;;;;10.23;2.80;;;16.70;99.90;;;;;;5065133;28;20533;-76
2022/10/16 00:49:34;;;;;;;11.83;2.93;;;16.70;99.90;;;;;;5061640;28;20441;-76
2022/10/16 00:52:20;;;;;;;7.63;2.67;;;16.70;99.90;;;;;;5065457;28;20450;-77
2022/10/16 00:55:08;;;;;;;5.77;3.50;;;16.70;99.90;;;;;;5063448;28;20831;-76
2022/10/16 00:57:55;;;;;;;10.93;3.63;;;16.60;99.90;;;;;;5066761;28;20516;-75
2022/10/16 01:00:41;;;;;;;9.00;3.03;;;16.70;99.90;;;;;;5068700;28;20410;-76
2022/10/16 01:03:30;;;;;;;3.50;2.50;;;16.80;99.90;;;;;;5071132;28;20790;-76
2022/10/16 01:06:26;;;;;;;5.37;2.67;;;16.70;99.90;;;;;;5065134;28;20475;-76
2022/10/16 01:09:17;;;;;;;3.77;3.00;;;16.70;99.90;;;;;;5065471;28;20458;-75
2022/10/16 01:12:10;;;;;;;8.63;3.10;;;16.70;99.90;;;;;;5067476;28;20433;-76
2022/10/16 01:15:02;;;;;;;4.30;2.30;;;16.80;99.90;;;;;;5068587;28;20505;-76
2022/10/16 01:17:54;;;;;;;3.47;2.23;;;16.80;99.90;;;;;;5067359;28;20417;-76
2022/10/16 01:20:47;;;;;;;5.63;2.50;;;16.80;99.90;;;;;;5072387;28;20450;-75
2022/10/16 01:23:49;;;;;;;5.27;2.33;;;16.70;99.90;;;;;;5068613;28;20465;-76
2022/10/16 01:26:51;;;;;;;9.90;2.83;;;16.70;99.90;;;;;;5065447;28;20446;-75
2022/10/16 01:29:42;;;;;;;8.50;2.30;;;16.70;99.90;;;;;;5061783;28;20587;-76
2022/10/16 01:32:37;;;;;;;4.80;1.97;;;16.60;99.90;;;;;;5065974;28;20995;-76
2022/10/16 01:35:26;;;;;;;5.70;2.03;;;16.60;99.90;;;;;;5067752;28;20532;-76
2022/10/16 01:38:16;;;;;;;6.70;2.40;;;16.60;99.90;;;;;;5064672;28;20445;-76
2022/10/16 01:41:07;;;;;;;7.53;2.43;;;16.60;99.90;;;;;;5067069;28;20442;-75
2022/10/16 01:43:59;;;;;;;9.67;2.43;;;16.60;99.90;;;;;;5067995;28;20512;-76
2022/10/16 01:46:50;;;;;;;3.03;1.60;;;16.60;99.90;;;;;;5065397;28;20942;-76
2022/10/16 01:49:38;;;;;;;5.03;2.20;;;16.60;99.90;;;;;;5065760;28;20589;-75
2022/10/16 01:52:27;;;;;;;2.20;1.70;;;16.60;99.90;;;;;;5066274;28;20482;-76
2022/10/16 01:55:18;;;;;;;2.73;2.10;;;16.60;99.90;;;;;;5068591;28;21115;-76
2022/10/16 01:58:07;;;;;;;3.77;2.30;;;16.60;99.90;;;;;;5065354;28;20980;-76
2022/10/16 02:00:55;;;;;;;11.77;2.30;;;16.60;99.90;;;;;;5075638;28;20509;-76
2022/10/16 02:03:45;;;;;;;3.43;2.00;;;16.60;99.90;;;;;;5066312;28;20830;-76
2022/10/16 02:06:31;;;;;;;8.73;2.13;;;16.60;99.90;;;;;;5068769;28;20450;-75
2022/10/16 02:09:17;;;;;;;4.47;2.27;;;16.70;99.90;;;;;;5073251;28;20573;-76
2022/10/16 02:12:09;;;;;;;6.20;2.00;;;16.70;99.90;;;;;;5064192;28;20809;-76
2022/10/16 02:14:55;;;;;;;4.87;1.83;;;16.70;99.90;;;;;;5066853;28;20409;-76
2022/10/16 02:17:41;;;;;;;5.90;2.00;;;16.70;99.90;;;;;;5064335;28;20451;-76
2022/10/16 02:20:33;;;;;;;3.13;1.67;;;16.70;99.90;;;;;;5067487;28;20421;-76
2022/10/16 02:23:25;;;;;;;4.93;1.63;;;16.60;99.90;;;;;;5065744;28;20470;-76
2022/10/16 02:26:16;;;;;;;4.40;2.20;;;16.60;99.90;;;;;;5068097;28;20799;-76
2022/10/16 02:29:05;;;;;;;9.10;2.03;;;16.60;99.90;;;;;;5064001;28;20442;-76
2022/10/16 02:31:56;;;;;;;6.43;2.20;;;16.70;99.90;;;;;;5064471;28;20450;-76
2022/10/16 02:34:42;;;;;;;12.70;2.37;;;16.70;99.90;;;;;;5064577;28;20443;-76
2022/10/16 02:37:30;;;;;;;9.50;2.37;;;16.70;99.90;;;;;;5063852;28;20428;-76
2022/10/16 02:40:17;;;;;;;15.77;2.87;;;16.70;99.90;;;;;;5074186;28;20894;-76
2022/10/16 02:43:05;;;;;;;12.13;2.50;;;16.60;99.90;;;;;;5066987;28;20433;-75
2022/10/16 02:45:51;;;;;;;9.60;2.30;;;16.60;99.90;;;;;;5065378;28;20454;-76
2022/10/16 02:48:36;;;;;;;12.30;2.20;;;16.50;99.90;;;;;;5062392;28;20417;-75
2022/10/16 02:51:22;;;;;;;2.50;1.50;;;16.30;99.90;;;;;;5067735;28;20780;-76
2022/10/16 02:54:09;;;;;;;19.37;2.80;;;16.40;99.90;;;;;;5064829;28;20534;-76
2022/10/16 02:56:55;;;;;;;4.77;2.00;;;16.40;99.90;;;;;;5065671;28;20493;-76
2022/10/16 02:59:40;;;;;;;4.77;2.23;;;16.40;99.90;;;;;;5064397;28;20442;-76
2022/10/16 03:02:27;;;;;;;4.97;2.00;;;16.50;99.90;;;;;;5068311;28;20491;-75
2022/10/16 03:05:13;;;;;;;3.40;1.80;;;16.50;99.90;;;;;;5065839;28;20450;-76
2022/10/16 03:08:00;;;;;;;6.90;2.23;;;16.50;99.90;;;;;;5067389;28;20425;-76
2022/10/16 03:10:47;;;;;;;7.37;2.20;;;16.40;99.90;;;;;;5071624;28;20474;-75
2022/10/16 03:13:32;;;;;;;8.60;2.37;;;16.40;99.90;;;;;;5068954;28;20440;-76
2022/10/16 03:16:18;;;;;;;8.97;2.10;;;16.40;99.90;;;;;;5068363;28;20456;-76
2022/10/16 03:19:04;;;;;;;9.50;1.90;;;16.50;99.90;;;;;;5071802;28;20466;-76
2022/10/16 03:21:50;;;;;;;9.77;1.73;;;16.50;99.90;;;;;;5069550;28;21040;-76
2022/10/16 03:24:36;;;;;;;11.47;2.17;;;16.50;99.90;;;;;;5066935;28;20438;-75
2022/10/16 03:27:23;;;;;;;10.10;2.33;;;16.50;99.90;;;;;;5068505;28;20455;-75
2022/10/16 03:30:10;;;;;;;8.63;2.00;;;16.50;99.90;;;;;;5067474;28;20469;-76
2022/10/16 03:32:58;;;;;;;5.23;2.43;;;16.50;99.90;;;;;;5069927;28;20465;-76
2022/10/16 03:35:51;;;;;;;9.23;1.97;;;16.40;99.90;;;;;;5069969;28;20435;-76
2022/10/16 03:38:37;;;;;;;4.87;1.80;;;16.30;99.90;;;;;;5069131;28;20593;-76
2022/10/16 03:41:22;;;;;;;20.30;2.47;;;16.40;99.90;;;;;;5070115;28;20438;-76
2022/10/16 03:44:09;;;;;;;4.60;1.83;;;16.40;99.90;;;;;;5067816;28;20466;-76
2022/10/16 03:46:55;;;;;;;9.30;1.80;;;16.40;99.90;;;;;;5069311;28;20443;-76
2022/10/16 03:49:40;;;;;;;5.37;2.90;;;16.40;99.90;;;;;;5065883;28;20436;-76
2022/10/16 03:52:26;;;;;;;5.10;2.30;;;16.40;99.90;;;;;;5070650;28;20576;-76
2022/10/16 03:55:12;;;;;;;22.63;1.70;;;16.40;99.90;;;;;;5067922;28;20436;-76
2022/10/16 03:57:57;;;;;;;9.33;1.80;;;16.40;99.90;;;;;;5066970;28;20429;-76
2022/10/16 04:00:46;;;;;;;3.60;1.90;;;16.40;99.90;;;;;;5070701;28;20420;-75
2022/10/16 04:03:31;;;;;;;9.43;1.97;;;16.40;99.90;;;;;;5070108;28;20458;-75
2022/10/16 04:06:17;;;;;;;10.73;1.80;;;16.40;99.90;;;;;;5065766;28;20446;-76
2022/10/16 04:09:03;;;;;;;9.13;1.60;;;16.40;99.90;;;;;;5069763;28;20426;-76
2022/10/16 04:11:48;;;;;;;2.43;1.50;;;16.40;99.90;;;;;;5069653;28;20520;-76
2022/10/16 04:14:34;;;;;;;8.90;2.50;;;16.30;99.90;;;;;;5071773;28;20405;-76
2022/10/16 04:17:21;;;;;;;10.13;1.57;;;16.40;99.90;;;;;;5067862;28;20451;-76
2022/10/16 04:20:08;;;;;;;7.03;2.27;;;16.40;99.90;;;;;;5071744;28;20439;-76
2022/10/16 04:22:54;;;;;;;9.33;1.90;;;16.40;99.90;;;;;;5070187;28;20824;-76
2022/10/16 04:25:39;;;;;;;15.00;1.93;;;16.40;99.90;;;;;;5066953;28;20423;-76
2022/10/16 04:28:25;;;;;;;9.27;1.60;;;16.50;99.90;;;;;;5069113;28;20409;-76
2022/10/16 04:31:10;;;;;;;3.63;1.60;;;16.40;99.90;;;;;;5069379;28;20999;-75
2022/10/16 04:33:57;;;;;;;5.53;1.80;;;16.30;99.90;;;;;;5063042;28;20466;-76
2022/10/16 04:36:43;;;;;;;3.30;1.70;;;16.30;99.90;;;;;;5066306;28;20420;-76
2022/10/16 04:39:28;;;;;;;13.23;2.03;;;16.30;99.90;;;;;;5065123;28;20529;-76
2022/10/16 04:42:14;;;;;;;7.17;1.37;;;16.40;99.90;;;;;;5067655;28;20413;-76
2022/10/16 04:45:00;;;;;;;9.10;2.60;;;16.50;99.90;;;;;;5069699;28;20428;-76
2022/10/16 04:47:46;;;;;;;4.23;1.30;;;16.40;99.90;;;;;;5067370;28;20922;-76
2022/10/16 04:50:33;;;;;;;12.10;2.67;;;16.40;99.90;;;;;;5068005;28;20504;-76
2022/10/16 04:53:18;;;;;;;5.10;1.90;;;16.40;99.90;;;;;;5070732;28;20995;-76
2022/10/16 04:56:04;;;;;;;5.43;2.23;;;16.40;99.90;;;;;;5065472;28;20451;-76
2022/10/16 04:58:50;;;;;;;8.03;3.17;;;16.20;99.90;;;;;;5073983;28;20397;-76
2022/10/16 05:01:36;;;;;;;6.60;2.93;;;16.20;99.90;;;;;;5066116;28;20405;-76
2022/10/16 05:04:21;;;;;;;12.43;1.80;;;16.10;99.90;;;;;;5066161;28;20995;-76
2022/10/16 05:07:08;;;;;;;11.63;1.87;;;16.20;99.90;;;;;;5066870;28;21082;-75
2022/10/16 05:09:54;;;;;;;10.87;2.23;;;16.20;99.90;;;;;;5071078;28;20460;-76
2022/10/16 05:12:39;;;;;;;13.63;1.83;;;16.10;99.90;;;;;;5070692;28;20551;-76
2022/10/16 05:15:25;;;;;;;4.30;1.80;;;16.10;99.90;;;;;;5067972;28;21260;-75
2022/10/16 05:18:11;;;;;;;9.23;2.03;;;16.10;99.90;;;;;;5066658;28;20402;-76
2022/10/16 05:20:57;;;;;;;2.53;1.60;;;16.10;99.90;;;;;;5070171;28;20423;-76
2022/10/16 05:23:44;;;;;;;5.43;1.97;;;16.10;99.90;;;;;;5067997;28;20421;-75
2022/10/16 05:26:29;;;;;;;10.90;2.00;;;16.10;99.90;;;;;;5062412;28;20488;-76
2022/10/16 05:29:15;;;;;;;6.00;2.33;;;15.90;99.90;;;;;;5068598;28;20446;-76
2022/10/16 05:32:00;;;;;;;23.07;2.10;;;16.00;99.90;;;;;;5068405;28;20523;-76
2022/10/16 05:34:47;;;;;;;4.53;2.10;;;16.00;99.90;;;;;;5067085;28;20922;-76
2022/10/16 05:37:33;;;;;;;2.20;1.80;;;15.90;99.90;;;;;;5064330;28;20435;-76
2022/10/16 05:40:19;;;;;;;22.17;3.37;;;16.00;99.90;;;;;;5064242;28;20417;-76
2022/10/16 05:43:05;;;;;;;11.63;2.03;;;15.90;99.90;;;;;;5066177;28;20461;-76
2022/10/16 05:45:58;;;;;;;7.00;1.80;;;15.90;99.90;;;;;;5067362;28;20413;-76
2022/10/16 05:48:44;;;;;;;2.37;1.87;;;15.90;99.90;;;;;;5068885;28;20430;-75
2022/10/16 05:51:30;;;;;;;16.83;2.97;;;15.80;99.90;;;;;;5067415;28;20462;-76
2022/10/16 05:54:16;;;;;;;12.20;2.07;;;15.90;99.90;;;;;;5066168;28;20475;-76
2022/10/16 05:57:05;;;;;;;13.40;2.00;;;15.80;99.90;;;;;;5070330;28;20589;-76
2022/10/16 05:59:51;;;;;;;10.40;2.17;;;15.70;99.90;;;;;;5069092;28;20967;-76
2022/10/16 06:02:37;;;;;;;3.17;2.10;;;15.70;99.90;;;;;;5066527;28;21292;-75
2022/10/16 06:05:22;;;;;;;18.37;2.47;;;15.80;99.90;;;;;;5064151;28;20537;-76
2022/10/16 06:08:08;;;;;;;13.93;3.10;;;15.80;99.90;;;;;;5068690;28;20433;-76
2022/10/16 06:11:02;;;;;;;8.80;2.03;;;15.80;99.90;;;;;;5067857;28;20440;-76
2022/10/16 06:13:52;;;;;;;8.80;2.37;;;15.90;99.90;;;;;;5067442;28;20820;-76
2022/10/16 06:16:38;;;;;;;6.20;1.67;;;16.00;99.90;;;;;;5062727;28;20424;-76
2022/10/16 06:19:24;;;;;;;13.63;2.10;;;16.10;99.90;;;;;;5066577;28;20930;-76
2022/10/16 06:22:09;;;;;;;7.20;2.00;;;16.00;99.90;;;;;;5064756;28;20442;-75
2022/10/16 06:24:55;;;;;;;7.07;2.10;;;16.00;99.90;;;;;;5066463;28;20425;-76
2022/10/16 06:27:41;;;;;;;7.17;1.97;;;16.10;99.90;;;;;;5068253;28;20804;-76
2022/10/16 06:30:28;;;;;;;9.03;1.80;;;16.10;99.90;;;;;;5063143;28;20431;-76
2022/10/16 06:33:14;;;;;;;12.67;2.00;;;16.10;99.90;;;;;;5064941;28;20521;-76
2022/10/16 06:36:03;;;;;;;7.97;2.03;;;16.10;99.90;;;;;;5067761;28;20778;-76
2022/10/16 06:38:49;;;;;;;6.87;1.90;;;16.10;99.90;;;;;;5069125;28;20421;-76
2022/10/16 06:41:35;;;;;;;3.83;2.10;;;16.10;99.90;;;;;;5066569;28;20405;-75
2022/10/16 06:44:21;;;;;;;6.30;2.77;;;16.10;99.90;;;;;;5068732;28;20512;-75
2022/10/16 06:47:08;;;;;;;22.67;2.57;;;16.10;99.90;;;;;;5076851;28;20429;-75
2022/10/16 06:49:53;;;;;;;11.10;2.30;;;16.10;99.90;;;;;;5069898;28;20971;-76
2022/10/16 06:52:39;;;;;;;5.60;2.00;;;16.20;99.90;;;;;;5067269;28;20495;-76
2022/10/16 06:55:25;;;;;;;3.67;1.87;;;16.20;99.90;;;;;;5068753;28;20926;-76
2022/10/16 06:58:11;;;;;;;7.43;1.97;;;16.20;99.90;;;;;;5073702;28;20394;-76
2022/10/16 07:00:57;;;;;;;6.80;1.97;;;16.30;99.90;;;;;;5073140;28;20471;-76
2022/10/16 07:03:46;;;;;;;5.03;2.10;;;16.30;99.90;;;;;;5069278;28;20458;-75
2022/10/16 07:06:34;;;;;;;13.73;2.27;;;16.30;99.90;;;;;;5072083;28;20508;-76
2022/10/16 07:09:20;;;;;;;4.90;2.27;;;16.40;99.90;;;;;;5073377;28;20978;-76
2022/10/16 07:12:06;;;;;;;4.73;1.70;;;16.40;99.90;;;;;;5068031;28;20470;-76
2022/10/16 07:14:54;;;;;;;15.97;2.93;;;16.40;99.90;;;;;;5070529;28;20424;-76
2022/10/16 07:17:39;;;;;;;4.37;2.33;;;16.50;99.90;;;;;;5072786;28;20446;-76
2022/10/16 07:20:27;;;;;;;3.03;2.20;;;16.50;99.90;;;;;;5068736;28;20442;-76
2022/10/16 07:23:12;;;;;;;5.60;2.23;;;16.50;99.90;;;;;;5068161;28;20465;-76
2022/10/16 07:25:58;;;;;;;5.00;2.53;;;16.50;99.90;;;;;;5064664;28;20869;-76
2022/10/16 07:28:44;;;;;;;19.40;2.80;;;16.40;99.90;;;;;;5070976;28;20950;-76
2022/10/16 07:31:30;;;;;;;3.60;2.10;;;16.50;99.90;;;;;;5069278;28;20635;-76
2022/10/16 07:34:18;;;;;;;4.23;2.47;;;16.60;99.90;;;;;;5063211;28;20475;-76
2022/10/16 07:37:05;;;;;;;10.00;2.57;;;16.70;99.90;;;;;;5066045;28;20814;-76
2022/10/16 07:39:50;;;;;;;8.50;2.40;;;16.70;99.90;;;;;;5071641;28;20487;-76
2022/10/16 07:42:36;;;;;;;8.33;2.00;;;16.80;99.90;;;;;;5066645;28;20437;-75
2022/10/16 07:45:21;;;;;;;4.90;2.00;;;16.80;99.90;;;;;;5066279;28;20446;-76
2022/10/16 07:48:07;;;;;;;6.37;3.10;;;16.90;99.90;;;;;;5072257;28;20814;-75
2022/10/16 07:50:53;;;;;;;14.87;5.83;;;16.90;99.90;;;;;;5069930;28;20547;-76
2022/10/16 07:53:40;;;;;;;8.80;2.30;;;17.00;99.90;;;;;;5068528;28;20449;-75
2022/10/16 07:56:26;;;;;;;6.60;2.43;;;17.10;99.90;;;;;;5067582;28;20503;-76
2022/10/16 07:59:11;;;;;;;8.30;2.03;;;17.10;99.90;;;;;;5066516;28;20809;-76
2022/10/16 08:01:57;;;;;;;10.00;2.13;;;17.20;99.90;;;;;;5070970;28;20443;-76
2022/10/16 08:04:43;;;;;;;7.87;2.40;;;17.20;99.90;;;;;;5066699;28;20447;-76
2022/10/16 08:07:28;;;;;;;7.93;2.23;;;17.20;99.90;;;;;;5062903;28;20471;-76
2022/10/16 08:10:18;;;;;;;5.33;2.60;;;17.20;99.90;;;;;;5070460;28;20479;-76
2022/10/16 08:13:04;;;;;;;3.73;2.20;;;17.20;99.90;;;;;;5069969;28;20457;-76
2022/10/16 08:15:50;;;;;;;6.13;2.40;;;17.30;99.90;;;;;;5068978;28;20528;-76
2022/10/16 08:18:36;;;;;;;4.40;2.53;;;17.30;99.90;;;;;;5066228;28;20410;-76
2022/10/16 08:21:24;;;;;;;5.30;2.37;;;17.30;99.90;;;;;;5068659;28;20547;-76
2022/10/16 08:24:10;;;;;;;9.13;2.20;;;17.30;99.90;;;;;;5066866;28;20688;-76
2022/10/16 08:26:57;;;;;;;13.17;2.33;;;17.40;99.90;;;;;;5070217;28;20446;-76
2022/10/16 08:29:42;;;;;;;7.40;3.00;;;17.40;99.90;;;;;;5064355;28;20504;-76
2022/10/16 08:32:28;;;;;;;6.60;2.80;;;17.40;99.90;;;;;;5068984;28;20489;-75
2022/10/16 08:35:14;;;;;;;9.23;2.93;;;17.30;99.90;;;;;;5063964;28;20941;-76
2022/10/16 08:38:00;;;;;;;4.90;2.80;;;17.40;99.90;;;;;;5070067;28;20784;-76
2022/10/16 08:40:46;;;;;;;5.20;2.73;;;17.30;99.90;;;;;;5069351;28;20451;-75
2022/10/16 08:43:54;;;;;;;7.83;2.60;;;17.40;99.90;;;;;;5064354;28;20466;-75
2022/10/16 08:46:46;;;;;;;5.50;2.93;;;17.30;99.90;;;;;;5068955;28;20421;-76
2022/10/16 08:49:32;;;;;;;4.87;2.87;;;17.30;99.90;;;;;;5064622;28;20471;-75
2022/10/16 08:52:18;;;;;;;9.27;4.37;;;17.30;99.90;;;;;;5069728;28;20508;-76
2022/10/16 08:55:05;;;;;;;13.70;4.67;;;17.20;99.90;;;;;;5065429;28;20438;-75
2022/10/16 08:57:51;;;;;;;12.97;4.20;;;17.10;99.90;;;;;;5065815;28;20781;-75
2022/10/16 09:00:39;;;;;;;8.80;2.97;;;17.00;99.90;;;;;;5064488;28;20526;-76
2022/10/16 09:03:50;;;;;;;4.43;2.40;;;17.00;99.90;;;;;;5066470;28;20508;-75
2022/10/16 09:06:46;;;;;;;7.23;2.73;;;16.90;99.90;;;;;;5069257;28;20442;-76
2022/10/16 09:10:04;;;;;;;10.57;3.17;;;16.90;99.90;;;;;;5064505;28;20828;-76
2022/10/16 09:12:56;;;;;;;7.80;2.50;;;16.90;99.90;;;;;;5066639;28;20448;-76
2022/10/16 09:15:51;;;;;;;5.30;2.40;;;16.90;99.90;;;;;;5065435;28;20412;-76
2022/10/16 09:18:46;;;;;;;7.10;3.07;;;17.00;99.90;;;;;;5068168;28;20417;-76
2022/10/16 09:21:37;;;;;;;3.40;2.70;;;17.00;99.90;;;;;;5069307;28;20573;-76
2022/10/16 09:24:26;;;;;;;10.00;2.70;;;17.00;99.90;;;;;;5067410;28;20448;-76
2022/10/16 09:27:13;;;;;;;4.23;2.00;;;16.90;99.90;;;;;;5064575;28;20413;-76
2022/10/16 09:29:59;;;;;;;5.00;3.00;;;16.90;99.90;;;;;;5065299;28;20972;-75
2022/10/16 09:32:49;;;;;;;6.27;3.97;;;16.90;99.90;;;;;;5066377;28;20521;-76
2022/10/16 09:35:39;;;;;;;4.27;3.40;;;17.00;99.90;;;;;;5076587;28;20413;-76
2022/10/16 09:38:28;;;;;;;5.80;2.37;;;17.10;99.90;;;;;;5067058;28;20479;-76
2022/10/16 09:41:18;;;;;;;3.17;2.47;;;17.20;99.90;;;;;;5070832;28;20813;-76
2022/10/16 09:44:07;;;;;;;11.00;3.40;;;17.30;99.90;;;;;;5073019;28;20502;-76
2022/10/16 09:47:02;;;;;;;3.53;2.83;;;17.40;99.90;;;;;;5069275;28;20787;-76
2022/10/16 09:49:59;;;;;;;6.50;2.83;;;17.60;99.90;;;;;;5065881;28;20466;-76
2022/10/16 09:52:45;;;;;;;6.30;2.77;;;17.80;99.90;;;;;;5067493;28;20680;-75
2022/10/16 09:55:30;;;;;;;8.20;2.53;;;17.90;99.90;;;;;;5073641;28;20464;-76
2022/10/16 09:58:16;;;;;;;7.30;2.60;;;17.90;99.90;;;;;;5070571;28;20460;-75
2022/10/16 10:01:02;;;;;;;4.87;2.50;;;18.00;99.90;;;;;;5066515;28;20426;-76
2022/10/16 10:03:49;;;;;;;7.33;2.80;;;18.10;99.90;;;;;;5067128;28;20450;-76
2022/10/16 10:06:38;;;;;;;4.33;2.07;;;18.10;99.90;;;;;;5071264;28;20577;-76
2022/10/16 10:09:26;;;;;;;5.37;2.53;;;18.20;99.90;;;;;;5069268;28;21086;-76
2022/10/16 10:12:20;;;;;;;5.53;2.50;;;18.20;99.90;;;;;;5067637;28;20534;-77
2022/10/16 10:15:08;;;;;;;3.80;2.40;;;18.30;99.90;;;;;;5068718;28;20425;-76
2022/10/16 10:17:56;;;;;;;4.63;1.90;;;18.50;99.90;;;;;;5074902;28;20456;-77
2022/10/16 10:20:42;;;;;;;2.03;1.67;;;18.70;99.90;;;;;;5076411;28;20443;-76
2022/10/16 10:23:31;;;;;;;3.07;2.17;;;18.90;99.90;;;;;;5074469;28;20463;-76
2022/10/16 10:26:21;;;;;;;2.70;1.57;;;19.20;99.90;;;;;;5075278;28;20450;-77
2022/10/16 10:29:13;;;;;;;4.30;1.90;;;19.50;99.90;;;;;;5075052;28;20525;-76
2022/10/16 10:32:09;;;;;;;2.80;1.40;;;19.70;99.90;;;;;;5074116;28;20450;-75
2022/10/16 10:35:15;;;;;;;6.43;1.70;;;20.00;99.90;;;;;;5074749;28;20500;-76
2022/10/16 10:38:17;;;;;;;3.93;1.33;;;20.20;99.90;;;;;;5072385;28;20436;-76
2022/10/16 10:41:28;;;;;;;5.10;1.70;;;20.40;99.90;;;;;;5073571;28;20433;-76
2022/10/16 10:44:23;;;;;;;7.03;1.93;;;20.60;99.90;;;;;;5050868;28;20466;-74
2022/10/16 10:47:17;;;;;;;3.97;1.30;;;20.70;99.90;;;;;;5074331;28;20465;-74
2022/10/16 10:50:14;;;;;;;4.60;1.80;;;20.80;99.90;;;;;;5075844;28;20427;-74
2022/10/16 10:53:07;;;;;;;3.40;1.60;;;20.90;99.90;;;;;;5071316;28;21018;-74
2022/10/16 10:56:00;;;;;;;4.57;1.50;;;20.90;99.90;;;;;;5073310;28;20488;-74
2022/10/16 10:59:05;;;;;;;5.43;1.80;;;20.80;99.90;;;;;;5071888;28;20445;-74
2022/10/16 11:01:57;;;;;;;7.53;1.63;;;21.00;99.90;;;;;;5079409;28;20947;-74
2022/10/16 11:05:09;;;;;;;8.40;1.80;;;21.00;99.90;;;;;;5073242;28;20393;-74
2022/10/16 11:07:59;;;;;;;6.23;1.60;;;21.00;99.90;;;;;;5075940;28;20434;-74
2022/10/16 11:10:54;;;;;;;3.73;1.60;;;21.00;99.90;;;;;;5073212;28;20938;-74
2022/10/16 11:13:45;;;;;;;4.10;1.90;;;21.10;99.90;;;;;;5064022;28;20486;-74
2022/10/16 11:16:36;;;;;;;3.43;1.77;;;21.10;99.90;;;;;;5063246;28;20818;-74
2022/10/16 11:19:32;;;;;;;4.73;1.80;;;21.00;99.90;;;;;;5068083;28;20805;-75
2022/10/16 11:22:23;;;;;;;8.90;2.10;;;20.80;99.90;;;;;;5072412;28;20473;-75
2022/10/16 11:25:16;;;;;;;5.43;1.83;;;20.90;99.90;;;;;;5074956;28;20561;-74
2022/10/16 11:28:06;;;;;;;15.40;1.80;;;21.00;99.90;;;;;;5071253;28;20443;-75
2022/10/16 11:30:58;;;;;;;8.27;1.87;;;21.00;99.90;;;;;;5075667;28;20537;-75
2022/10/16 11:33:50;;;;;;;5.57;1.70;;;21.10;99.90;;;;;;5074612;28;20506;-75
2022/10/16 11:36:41;;;;;;;3.50;2.10;;;21.20;99.90;;;;;;5071261;28;20466;-75
2022/10/16 11:39:29;;;;;;;4.10;1.77;;;21.20;99.90;;;;;;5076378;28;20400;-77
2022/10/16 11:42:21;;;;;;;7.23;1.40;;;21.20;99.90;;;;;;5073302;28;20537;-75
2022/10/16 11:45:27;;;;;;;4.60;1.70;;;21.30;99.90;;;;;;5072371;28;20451;-76
2022/10/16 11:48:24;;;;;;;3.90;3.50;;;21.30;99.90;;;;;;5077068;28;20439;-76
2022/10/16 11:51:19;;;;;;;11.83;2.10;;;21.30;99.90;;;;;;5077789;28;20405;-76
2022/10/16 11:54:16;;;;;;;3.40;1.70;;;21.40;99.90;;;;;;5074964;28;21012;-76
2022/10/16 11:57:10;;;;;;;9.30;2.07;;;21.50;99.90;;;;;;5075618;28;20469;-75
2022/10/16 11:59:59;;;;;;;3.60;1.80;;;21.60;99.90;;;;;;5077722;28;20920;-76
2022/10/16 12:02:57;;;;;;;5.77;2.13;;;21.70;99.90;;;;;;5078147;28;20446;-76
2022/10/16 12:05:56;;;;;;;4.13;2.00;;;21.80;99.90;;;;;;5073276;28;20441;-75
2022/10/16 12:08:44;;;;;;;3.03;1.93;;;21.80;99.90;;;;;;5082102;28;21111;-76
2022/10/16 12:11:39;;;;;;;11.03;2.20;;;21.70;99.90;;;;;;5077385;28;20414;-75
2022/10/16 12:14:42;;;;;;;9.00;2.40;;;21.70;99.90;;;;;;5064876;28;20466;-74
2022/10/16 12:17:36;;;;;;;3.33;2.10;;;21.50;99.90;;;;;;5072630;28;20453;-76
2022/10/16 12:20:32;;;;;;;7.10;2.63;;;21.40;99.90;;;;;;5077435;28;20854;-75
2022/10/16 12:23:22;;;;;;;6.67;2.10;;;21.30;99.90;;;;;;5075792;28;20548;-76
2022/10/16 12:26:11;;;;;;;3.23;1.80;;;21.30;99.90;;;;;;5069287;28;20470;-76
2022/10/16 12:29:14;;;;;;;5.17;2.23;;;21.10;99.90;;;;;;5076735;28;20430;-76
2022/10/16 12:32:00;;;;;;;2.80;2.07;;;21.10;99.90;;;;;;5074413;28;20452;-75
2022/10/16 12:34:48;;;;;;;13.57;2.33;;;21.10;99.90;;;;;;5077283;28;20437;-76
2022/10/16 12:37:36;;;;;;;4.23;2.30;;;20.90;99.90;;;;;;5070025;28;20484;-76
2022/10/16 12:40:29;;;;;;;3.80;1.90;;;20.90;99.90;;;;;;5076661;28;20431;-75
2022/10/16 12:43:28;;;;;;;4.10;2.10;;;20.90;99.90;;;;;;5077052;28;20795;-75
2022/10/16 12:46:24;;;;;;;5.47;2.30;;;20.80;99.90;;;;;;5071342;28;20526;-75
2022/10/16 12:49:33;;;;;;;4.07;1.67;;;20.70;99.90;;;;;;5071062;28;21060;-75
2022/10/16 12:52:27;;;;;;;5.13;2.67;;;20.80;99.90;;;;;;5071214;28;20448;-75
2022/10/16 12:55:18;;;;;;;7.10;2.07;;;20.70;99.90;;;;;;5073722;28;20424;-76
2022/10/16 12:58:30;;;;;;;8.03;2.60;;;20.70;99.90;;;;;;5075128;28;20511;-75
2022/10/16 13:01:30;;;;;;;13.83;2.47;;;20.60;99.90;;;;;;5067619;28;20704;-76
2022/10/16 13:04:44;;;;;;;9.60;2.53;;;20.50;99.90;;;;;;5076583;28;20427;-76
2022/10/16 13:07:47;;;;;;;10.40;2.50;;;20.70;99.90;;;;;;5073347;28;20432;-76
2022/10/16 13:10:41;;;;;;;13.20;2.67;;;20.90;99.90;;;;;;5066024;28;20423;-75
2022/10/16 13:13:47;;;;;;;3.47;1.80;;;21.00;99.90;;;;;;5076460;28;20474;-75
2022/10/16 13:16:43;;;;;;;8.53;3.00;;;21.10;99.90;;;;;;5070318;28;20556;-76
2022/10/16 13:19:36;;;;;;;5.63;2.37;;;21.10;99.90;;;;;;5072144;28;20417;-75
2022/10/16 13:22:29;;;;;;;8.30;2.17;;;21.10;99.90;;;;;;5073831;28;20429;-76
2022/10/16 13:25:28;;;;;;;13.70;2.40;;;21.00;99.90;;;;;;5074979;28;20443;-76
2022/10/16 13:28:14;;;;;;;8.40;2.10;;;21.00;99.90;;;;;;5072601;28;20422;-74
2022/10/16 13:31:01;;;;;;;19.70;2.60;;;20.90;99.90;;;;;;5076411;28;20426;-75
2022/10/16 13:33:54;;;;;;;7.80;2.43;;;20.80;99.90;;;;;;5076426;28;20478;-75
2022/10/16 13:36:45;;;;;;;3.13;2.00;;;20.70;99.90;;;;;;5067746;28;20514;-74
2022/10/16 13:39:31;;;;;;;6.07;2.23;;;20.50;99.90;;;;;;5075737;28;20481;-75
2022/10/16 13:42:23;;;;;;;6.47;2.10;;;20.40;99.90;;;;;;5074219;28;20793;-74
2022/10/16 13:45:19;;;;;;;8.00;2.20;;;20.30;99.90;;;;;;5070627;28;20499;-76
2022/10/16 13:48:06;;;;;;;14.20;3.13;;;20.10;99.90;;;;;;5081425;28;20485;-76
2022/10/16 13:51:08;;;;;;;4.13;2.40;;;20.00;99.90;;;;;;5072563;28;20439;-75
2022/10/16 13:53:55;;;;;;;2.80;2.30;;;19.80;99.90;;;;;;5075381;28;20527;-75
2022/10/16 13:56:41;;;;;;;2.90;2.10;;;19.80;99.90;;;;;;5073653;28;20454;-76
2022/10/16 13:59:33;;;;;;;8.33;1.77;;;19.70;99.90;;;;;;5077083;28;20405;-76
2022/10/16 14:02:26;;;;;;;3.60;2.20;;;19.70;99.90;;;;;;5073440;28;20952;-76
2022/10/16 14:05:15;;;;;;;18.63;2.87;;;19.70;99.90;;;;;;5074376;28;20488;-76
2022/10/16 14:08:02;;;;;;;9.60;2.47;;;19.50;99.90;;;;;;5080336;28;20402;-75
2022/10/16 14:10:50;;;;;;;6.47;2.80;;;19.50;99.90;;;;;;5076945;28;20432;-76
2022/10/16 14:13:40;;;;;;;5.53;2.60;;;19.50;99.90;;;;;;5075208;28;20834;-76
2022/10/16 14:16:28;;;;;;;11.23;2.93;;;19.40;99.90;;;;;;5070119;28;20429;-75
2022/10/16 14:19:19;;;;;;;6.57;2.30;;;19.50;99.90;;;;;;5070161;28;20948;-76
2022/10/16 14:22:30;;;;;;;9.43;2.47;;;19.40;99.90;;;;;;5073022;28;20490;-76
2022/10/16 14:25:29;;;;;;;3.57;2.80;;;19.30;99.90;;;;;;5071867;28;20414;-75
2022/10/16 14:28:18;;;;;;;6.77;2.60;;;19.40;99.90;;;;;;5069706;28;20834;-76
2022/10/16 14:31:21;;;;;;;7.10;2.37;;;19.40;99.90;;;;;;5075400;28;20401;-75
2022/10/16 14:34:28;;;;;;;20.07;2.40;;;19.40;99.90;;;;;;5073632;28;21117;-74
2022/10/16 14:37:24;;;;;;;4.93;2.33;;;19.30;99.90;;;;;;5074587;28;20393;-75
2022/10/16 14:40:16;;;;;;;6.07;2.57;;;19.30;99.90;;;;;;5072121;28;20907;-75
2022/10/16 14:43:05;;;;;;;11.87;2.67;;;19.20;99.90;;;;;;5069015;28;20416;-76